Latest Weather Observations for Khancoban

IDN60801

Issued at 12:13 pm EDT Monday 26 October 2020 (issued every 10 minutes, with the page automatically refreshed every 10 minutes)

About weather observations | Map of weather stations | Latest weather observations for NSW | Other Formats
Station Details ID: 072162 Name: KHANCOBAN AWS Lat: -36.23 Lon: 148.14 Height: 339.3 m
Data from the previous 72 hours. | See also: Recent months at Khancoban
Date/Time
EDT
Temp
°C
App
Temp
°C
Dew
Point
°C
Rel
Hum
%
Delta-T
°C
Wind Press
QNH
hPa
Press
MSL
hPa
Rain since
9am
mm
Dir  Spd
km/h
Gust
km/h
Spd
kts
Gust
kts
26/12:00pm 16.3 11.3 3.4 42 6.0 SSE 19 32 10 17 1020.4 1020.1 0.0
26/11:30am 15.0 9.9 3.2 45 5.4 SSE 19 33 10 18 1020.6 1020.3 0.0
26/11:00am 14.4 9.0 1.3 41 5.7 SSE 19 35 10 19 1020.8 1020.6 0.0
26/10:30am 14.2 9.3 2.1 44 5.4 SSE 17 30 9 16 1020.6 1020.3 0.0
26/10:00am 14.3 9.8 1.9 43 5.5 S 15 24 8 13 1020.4 1020.1 0.0
26/09:30am 13.9 9.9 5.0 55 4.2 S 15 24 8 13 1020.0 1019.7 0.0
26/09:00am 13.3 8.2 4.2 54 4.2 S 20 32 11 17 1019.8 1019.5 0.0
26/08:30am 12.0 5.7 3.8 57 3.7 S 26 39 14 21 1019.3 1019.0 0.0
26/08:00am 12.2 8.0 3.9 57 3.8 SSE 15 28 8 15 1019.4 1019.1 0.0
26/07:30am 11.4 6.2 3.4 58 3.6 S 20 33 11 18 1019.2 1018.9 0.0
26/07:00am 11.5 6.4 3.0 56 3.8 S 19 32 10 17 1018.8 1018.5 0.0
26/06:30am 11.3 5.7 3.6 59 3.5 S 22 32 12 17 1018.5 1018.2 0.0
26/06:00am 11.3 7.1 3.6 59 3.5 S 15 22 8 12 1017.9 1017.6 0.0
26/05:30am 11.2 6.2 3.5 59 3.5 S 19 28 10 15 1017.6 1017.3 0.0
26/05:00am 11.3 5.7 3.3 58 3.6 S 22 35 12 19 1017.3 1017.0 0.0
26/04:30am 11.8 6.7 3.1 55 3.9 S 19 33 10 18 1017.2 1016.9 0.0
26/04:00am 12.2 6.1 2.9 53 4.2 S 24 33 13 18 1017.1 1016.8 0.0
26/03:30am 12.2 6.5 2.9 53 4.2 SSW 22 33 12 18 1017.0 1016.7 0.0
26/03:00am 12.4 6.0 3.1 53 4.2 S 26 35 14 19 1017.1 1016.8 0.0
26/02:30am 12.9 7.3 3.3 52 4.4 S 22 35 12 19 1017.1 1016.8 0.0
26/02:00am 12.5 7.9 3.5 54 4.1 S 17 28 9 15 1017.4 1017.1 0.0
26/01:30am 12.8 7.8 3.5 53 4.2 S 19 32 10 17 1017.3 1017.0 0.0
26/01:00am 13.0 7.8 3.4 52 4.4 S 20 30 11 16 1017.6 1017.3 0.0
26/12:30am 12.8 6.9 3.7 54 4.2 S 24 39 13 21 1017.7 1017.4 0.0
26/12:00am 13.6 7.2 3.4 50 4.7 S 26 39 14 21 1017.5 1017.2 0.0
 
Date/Time
EDT
Temp
°C
App
Temp
°C
Dew
Point
°C
Rel
Hum
%
Delta-T
°C
Wind Press
QNH
hPa
Press
MSL
hPa
Rain since
9am
mm
Dir  Spd
km/h
Gust
km/h
Spd
kts
Gust
kts
25/11:30pm 13.7 7.8 3.8 51 4.6 S 24 37 13 20 1017.7 1017.4 0.0
25/11:00pm 13.7 7.1 4.0 52 4.5 SSW 28 43 15 23 1017.6 1017.3 0.0
25/10:39pm 14.0 7.4 4.0 51 4.7 S 28 46 15 25 1017.5 1017.2 0.0
25/10:30pm 14.0 7.4 4.3 52 4.5 S 28 41 15 22 1017.6 1017.3 0.0
25/10:00pm 13.8 8.9 4.9 55 4.2 S 20 32 11 17 1017.7 1017.4 0.0
25/09:30pm 13.6 8.8 5.7 59 3.8 S 20 30 11 16 1017.5 1017.2 0.0
25/09:00pm 12.6 8.5 6.2 65 3.1 S 17 28 9 15 1017.4 1017.1 0.0
25/08:30pm 13.0 9.3 6.1 63 3.3 S 15 22 8 12 1017.3 1017.0 0.0
25/08:00pm 13.8 8.3 5.9 59 3.8 S 24 30 13 16 1016.9 1016.6 0.0
25/07:30pm 13.6 11.1 6.5 62 3.5 S 9 17 5 9 1016.7 1016.4 0.0
25/07:00pm 15.2 11.6 4.9 50 4.9 S 13 19 7 10 1016.2 1015.9 0.0
25/06:30pm 15.6 12.0 6.6 55 4.5 S 15 26 8 14 1015.8 1015.5 0.0
25/06:00pm 16.0 11.8 5.6 50 5.1 SE 17 28 9 15 1015.4 1015.0 0.0
25/05:30pm 15.9 11.1 4.6 47 5.4 ESE 19 30 10 16 1015.0 1014.7 0.0
25/05:00pm 16.6 12.9 4.6 45 5.8 SSE 13 26 7 14 1014.6 1014.3 0.0
25/04:30pm 16.6 12.9 6.4 51 5.1 S 15 26 8 14 1014.0 1013.7 0.0
25/04:00pm 16.7 12.7 6.5 51 5.1 S 17 28 9 15 1013.8 1013.5 0.0
25/03:30pm 16.4 11.9 6.8 53 4.8 SSW 20 28 11 15 1013.8 1013.5 0.0
25/03:00pm 16.1 11.0 7.6 57 4.3 SSW 24 32 13 17 1014.0 1013.7 0.0
25/02:30pm 16.2 12.3 7.2 55 4.5 S 17 30 9 16 1014.3 1014.0 0.0
25/02:00pm 15.6 11.4 5.8 52 4.8 S 17 24 9 13 1014.6 1014.3 0.0
25/01:30pm 15.4 11.8 6.7 56 4.3 S 15 22 8 12 1014.4 1014.1 0.0
25/01:00pm 15.6 11.3 6.9 56 4.3 SSW 19 26 10 14 1014.4 1014.1 0.0
25/12:30pm 16.1 12.6 7.3 56 4.5 S 15 20 8 11 1014.4 1014.1 0.0
25/12:00pm 15.6 11.5 6.3 54 4.6 S 17 24 9 13 1014.7 1014.4 0.0
25/11:30am 13.8 9.0 5.7 58 3.9 SSW 20 28 11 15 1014.9 1014.6 0.0
25/11:00am 13.0 8.2 5.4 60 3.6 SSW 20 26 11 14 1015.0 1014.7 0.0
25/10:30am 12.1 7.2 5.3 63 3.2 S 20 30 11 16 1015.0 1014.7 0.0
25/10:00am 12.0 8.3 4.5 60 3.5 S 13 19 7 10 1014.9 1014.6 0.0
25/09:30am 11.6 9.0 4.1 60 3.4 NE 7 13 4 7 1014.6 1014.3 0.0
25/09:00am 11.1 8.1 4.3 63 3.1 SSW 9 19 5 10 1014.2 1013.9 37.2
25/08:30am 10.4 8.3 3.7 63 3.0 NE 4 7 2 4 1013.8 1013.5 37.2
25/08:00am 9.8 7.3 3.8 66 2.7 NNE 6 7 3 4 1013.6 1013.3 37.2
25/07:30am 9.4 8.1 4.0 69 2.4 CALM 0 0 0 0 1013.2 1012.9 37.2
25/07:00am 9.2 7.3 2.8 64 2.8 ENE 2 7 1 4 1012.8 1012.4 37.2
25/06:30am 9.0 7.0 4.2 72 2.2 WNW 4 7 2 4 1012.3 1011.9 37.2
25/06:00am 9.4 6.1 2.5 62 3.0 S 9 13 5 7 1011.7 1011.4 37.2
25/05:30am 9.2 6.2 4.0 70 2.3 S 9 13 5 7 1011.0 1010.7 37.2
25/05:00am 9.4 6.9 5.0 74 2.0 S 7 11 4 6 1010.7 1010.4 37.2
25/04:30am 9.7 6.6 5.5 75 1.9 S 11 17 6 9 1010.4 1010.0 37.2
25/04:00am 10.0 7.8 6.3 78 1.8 S 7 13 4 7 1009.9 1009.5 37.2
25/03:30am 10.3 7.4 6.5 77 1.8 SSE 11 19 6 10 1009.5 1009.1 37.2
25/03:00am 10.9 8.2 7.4 79 1.7 SSE 11 17 6 9 1009.2 1008.8 37.2
25/02:30am 10.9 8.6 7.4 79 1.7 ENE 9 15 5 8 1008.7 1008.4 37.0
25/02:00am 10.8 9.2 8.2 84 1.3 E 6 7 3 4 1008.6 1008.3 37.0
25/01:30am 10.7 10.1 9.1 90 0.8 E 2 6 1 3 1008.7 1008.4 37.0
25/01:00am 10.8 9.7 8.4 85 1.2 ENE 4 6 2 3 1008.7 1008.4 37.0
25/12:30am 10.9 9.5 8.8 87 1.1 ENE 6 9 3 5 1008.4 1008.1 37.0
25/12:00am 11.0 8.9 8.2 83 1.4 E 9 13 5 7 1008.3 1008.0 37.0
 
Date/Time
EDT
Temp
°C
App
Temp
°C
Dew
Point
°C
Rel
Hum
%
Delta-T
°C
Wind Press
QNH
hPa
Press
MSL
hPa
Rain since
9am
mm
Dir  Spd
km/h
Gust
km/h
Spd
kts
Gust
kts
24/11:30pm 11.6 12.1 11.6 100 0.0 CALM 0 6 0 3 1008.2 1007.9 37.0
24/11:00pm 11.5 10.0 10.7 95 0.4 NNE 9 11 5 6 1007.9 1007.5 37.0
24/10:30pm 11.5 10.6 11.5 100 0.0 NW 7 9 4 5 1007.4 1007.0 37.0
24/10:00pm 11.5 10.2 11.3 99 0.1 NE 9 11 5 6 1007.3 1006.9 37.0
24/09:30pm 12.0 11.7 11.5 97 0.3 SE 4 9 2 5 1007.0 1006.6 36.4
24/09:00pm 12.3 9.8 9.7 84 1.4 S 13 20 7 11 1006.4 1006.0 36.0
24/08:30pm 12.3 9.0 9.7 84 1.3 S 17 26 9 14 1006.1 1005.7 36.0
24/08:00pm 13.1 12.9 13.1 100 0.0 S 6 9 3 5 1005.4 1005.0 36.0
24/07:30pm 13.4 13.9 12.9 97 0.3 SW 2 6 1 3 1005.1 1004.7 36.0
24/07:00pm 13.1 11.9 12.9 99 0.1 S 11 19 6 10 1004.4 1004.0 35.8
24/06:30pm 15.5 13.2 11.7 78 2.1 WSW 15 39 8 21 1002.9 1002.4 30.6
24/06:00pm 19.5 21.5 16.0 80 2.1 CALM 0 0 0 0 1001.6 1001.2 29.2
24/05:30pm 20.1 21.1 15.3 74 2.9 NW 4 9 2 5 1001.4 1001.0 29.2
24/05:00pm 21.5 22.2 16.0 71 3.4 NW 7 11 4 6 1001.1 1000.7 29.2
24/04:30pm 20.2 20.7 15.0 72 3.1 WNW 6 7 3 4 1001.5 1001.1 29.2
24/04:00pm 20.2 20.3 15.6 75 2.8 WNW 9 13 5 7 1001.9 1001.5 29.2
24/03:30pm 19.9 20.8 16.7 82 2.0 NW 7 13 4 7 1002.3 1001.9 29.2
24/03:00pm 19.1 19.8 16.1 83 1.8 NNW 7 13 4 7 1002.5 1002.1 29.2
24/02:30pm 18.1 18.0 15.9 87 1.3 SSW 11 17 6 9 1002.6 1002.2 29.2
24/02:00pm 17.6 18.9 17.6 100 0.0 SW 7 9 4 5 1003.1 1002.6 29.2
24/01:30pm 15.9 15.8 15.9 100 0.0 SE 11 19 6 10 1003.0 1002.5 29.2
24/01:00pm 15.8 16.0 15.8 100 0.0 NW 9 13 5 7 1004.2 1003.8 26.2
24/12:30pm 15.8 16.0 15.8 100 0.0 N 9 15 5 8 1004.3 1003.9 23.0
24/12:00pm 16.3 15.9 16.3 100 0.0 NE 13 20 7 11 1004.2 1003.8 19.6
24/11:30am 16.6 15.6 16.6 100 0.0 ENE 17 20 9 11 1003.9 1003.5 16.0
24/11:00am 16.5 17.0 16.5 100 0.0 NNE 9 13 5 7 1004.2 1003.8 13.2
24/10:30am 17.2 17.1 17.0 99 0.1 NE 13 20 7 11 1003.6 1003.2 11.6
24/10:00am 16.6 16.4 16.6 100 0.0 ENE 13 24 7 13 1003.8 1003.4 9.4
24/09:30am 16.5 16.6 16.5 100 0.0 NNE 11 15 6 8 1003.9 1003.5 4.6
24/09:00am 16.5 17.0 16.5 100 0.0 NNE 9 11 5 6 1003.9 1003.5 33.2
24/08:30am 15.9 17.1 15.9 100 0.0 W 4 9 2 5 1003.8 1003.4 24.0
24/08:00am 15.8 17.3 15.8 100 0.0 ENE 2 9 1 5 1003.5 1003.1 20.0
24/07:30am 15.3 15.9 15.3 100 0.0 S 6 9 3 5 1003.6 1003.2 19.8
24/07:00am 15.4 16.8 15.4 100 0.0 WSW 2 9 1 5 1003.5 1003.1 19.0
24/06:30am 15.3 17.0 15.3 100 0.0 CALM 0 0 0 0 1003.7 1003.3 19.0
24/06:00am 15.1 15.6 15.1 100 0.0 NNW 6 9 3 5 1003.6 1003.2 19.0
24/05:30am 15.1 16.8 15.1 100 0.0 CALM 0 0 0 0 1003.4 1003.0 19.0
24/05:00am 15.0 16.6 15.0 100 0.0 CALM 0 0 0 0 1003.5 1003.1 19.0
24/04:30am 14.9 16.1 14.9 100 0.0 SSW 2 7 1 4 1004.0 1003.6 19.0
24/04:00am 15.0 16.6 15.0 100 0.0 CALM 0 0 0 0 1004.4 1004.0 19.0
24/03:30am 15.1 16.8 15.1 100 0.0 CALM 0 0 0 0 1004.8 1004.4 19.0
24/03:00am 15.1 16.4 15.1 100 0.0 SW 2 6 1 3 1004.9 1004.5 19.0
24/02:30am 15.2 15.6 15.2 100 0.0 SSW 7 11 4 6 1004.8 1004.4 18.8
24/02:00am 15.2 15.8 15.2 100 0.0 E 6 7 3 4 1004.9 1004.5 18.4
24/01:30am 14.9 16.5 14.9 100 0.0 CALM 0 0 0 0 1005.7 1005.4 16.8
24/01:00am 14.9 16.5 14.9 100 0.0 CALM 0 6 0 3 1005.7 1005.4 16.8
24/12:30am 15.1 16.4 15.1 100 0.0 NE 2 7 1 4 1005.9 1005.5 16.8
24/12:00am 15.0 15.5 15.0 100 0.0 SSE 6 7 3 4 1006.4 1006.0 16.6
 
Date/Time
EDT
Temp
°C
App
Temp
°C
Dew
Point
°C
Rel
Hum
%
Delta-T
°C
Wind Press
QNH
hPa
Press
MSL
hPa
Rain since
9am
mm
Dir  Spd
km/h
Gust
km/h
Spd
kts
Gust
kts
23/11:30pm 15.1 15.6 15.1 100 0.0 S 6 7 3 4 1006.5 1006.1 16.4
23/11:00pm 15.3 15.9 15.3 100 0.0 SSW 6 11 3 6 1006.9 1006.5 16.4
23/10:30pm 15.3 17.0 15.3 100 0.0 CALM 0 4 0 2 1007.5 1007.1 16.4
23/10:00pm 15.4 16.4 15.4 100 0.0 ENE 4 7 2 4 1007.5 1007.1 16.4
23/09:30pm 15.6 15.7 15.6 100 0.0 N 9 11 5 6 1007.7 1007.3 16.4
23/09:00pm 15.4 16.0 15.4 100 0.0 SE 6 9 3 5 1007.4 1007.0 16.4
23/08:30pm 15.6 16.7 15.6 100 0.0 SSE 4 11 2 6 1008.0 1007.6 16.4
23/08:00pm 15.8 16.4 15.8 100 0.0 SSW 7 11 4 6 1008.8 1008.5 16.0
23/07:30pm 15.7 16.3 15.7 100 0.0 SE 7 9 4 5 1009.3 1008.9 15.8
23/07:00pm 16.0 17.6 16.0 100 0.0 SW 2 7 1 4 1009.4 1009.0 13.2
23/06:30pm 16.5 17.0 16.5 100 0.0 ESE 9 15 5 8 1008.7 1008.4 10.8
23/06:00pm 17.1 16.7 17.1 100 0.0 SW 15 24 8 13 1007.8 1007.4 5.4
23/05:30pm 16.9 18.1 16.9 100 0.0 WSW 6 15 3 8 1008.8 1008.5 4.4
23/05:00pm 17.5 19.3 17.5 100 0.0 S 4 9 2 5 1008.4 1008.1 4.4
23/04:30pm 17.4 16.4 16.6 95 0.5 WNW 17 44 9 24 1009.5 1009.1 1.2
23/04:27pm 18.2 19.3 16.5 90 1.0 W 6 43 3 23 1009.3 1008.9 0.0
23/04:00pm 18.9 20.5 16.0 83 1.8 W 2 7 1 4 1008.1 1007.7 0.0
23/03:30pm 19.8 22.2 17.0 84 1.7 CALM 0 0 0 0 1008.5 1008.2 0.0
23/03:00pm 18.6 19.2 15.8 84 1.7 NNW 7 9 4 5 1009.5 1009.1 0.0
23/02:30pm 18.2 20.0 15.6 85 1.6 CALM 0 7 0 4 1009.7 1009.3 0.0
23/02:00pm 17.3 18.0 16.0 92 0.8 SSW 7 13 4 7 1009.9 1009.5 0.0
23/01:30pm 17.2 18.1 15.0 87 1.3 NW 4 7 2 4 1010.6 1010.2 0.0
23/01:00pm 17.2 17.0 14.8 86 1.4 N 9 11 5 6 1011.3 1011.0 0.0
23/12:30pm 17.6 18.4 15.9 90 1.0 S 6 11 3 6 1011.6 1011.3 0.0

Other formats

Comma delimited format used in spreadsheet applications
http://www.bom.gov.au/fwo/IDN60801/IDN60801.94919.axf

JavaScript Object Notation format (JSON) in row-major order
http://www.bom.gov.au/fwo/IDN60801/IDN60801.94919.json

Data quality

Most of these data are generated automatically and are frequently updated. Quality checks on data are not normally performed. It is possible for incorrect values to appear. Refer to information at About Latest Weather Observations and please check the disclaimer before using these data.